Atlantic - Newfoundland: Past 24 Hour Conditions

 

Burgeo

12:30 AM NDT 22 August 2014
This table is a summary of hourly weather conditions for the past 24 hours.
Date / Time
(NDT)
Wind(knots) Conditions Visibility(km) Pressure(kPa) Air tempC) Relative humidity(%) Dew pointC) Humidex
22 August 2014
0:30 N 3 N/A N/A 101.7 15 86 13 *
21 August 2014
23:30 N 5 N/A N/A 101.7 17 80 13 *
22:30 NNE 8 N/A N/A 101.7 17 79 14 *
21:30 NE 12 gust 18 N/A N/A 101.6 18 74 13 *
20:30 NNE 10 gust 15 N/A N/A 101.5 19 69 13 *
19:30 NNE 11 N/A N/A 101.5 21 63 13 *
18:30 NE 11 N/A N/A 101.5 22 59 13 *
17:30 NNE 10 N/A N/A 101.4 23 53 13 25
16:30 N 9 N/A N/A 101.4 23 51 12 25
15:30 N 7 N/A N/A 101.4 22 56 13 25
14:30 NE 7 N/A N/A 101.4 22 59 14 26
13:30 NNE 11 N/A N/A 101.4 22 55 13 25
12:30 N 9 gust 15 N/A N/A 101.4 22 59 13 25
11:30 N 15 gust 20 N/A N/A 101.4 21 63 14 *
10:30 NNW 14 gust 19 N/A N/A 101.4 21 65 14 *
9:30 NNW 11 gust 19 N/A N/A 101.3 20 71 14 *
8:30 NNW 10 gust 15 N/A N/A 101.4 18 79 14 *
7:30 WNW 5 N/A N/A 101.3 16 89 14 *
6:30 NW 1 N/A N/A 101.3 15 93 14 *
5:30 WNW 9 N/A N/A 101.2 14 93 13 *
4:30 WNW 2 N/A N/A 101.2 14 91 13 *
3:30 WNW 5 N/A N/A 101.2 15 90 13 *
2:30 NW 8 N/A N/A 101.2 16 88 14 *
1:30 WNW 8 N/A N/A 101.1 16 87 14 *
0:30 WNW 6 N/A N/A 101.1 16 87 14 *
 
Map of Atlantic - Newfoundland marine weather areas Southwestern Grand Banks - 44138 Banquereau - 44139 Tail of the Bank - 44140 Nickerson Bank - 44251 Northeast Burgeo Bank - 44255 Blanc-Sablon Airport Cap Whittle Chevery Natashquan Airport Heath Point Miscou Island Grand Étang Ingonish Beach North Mountain St.Paul Island J.A. Douglas McCurdy Sydney Airport Charlottetown Airport East Point North Cape Argentia Bonavista Burgeo Cape Race Corner Brook Daniel's Harbour Englee Ferolle Point La Scie Port aux Basques Rocky Harbour Sagona Island St. Anthony Airport St. John's Int'l Airport St. Lawrence Stephenville Airport Twillingate Winterland Wreckhouse Cartwright Airport Mary's Harbour Grates Cove Pool's Island Marticot Island Long Pond Îles de la Madeleine Airport
Legend: buoyBuoy land stationLand Station